Latest Weather Observations for Arlington Reef

IDQ60801

Issued at 12:02 pm EST Saturday 28 February 2015 (issued every 30 minutes, with the page automatically refreshed every 10 minutes)

About weather observations | Map of weather stations | Latest weather observations for QLD | Other Formats
Station Details ID: 200879 Name: ARLINGTON REEF Lat: -16.72 Lon: 146.11 Height: 0.0 m
Data from the previous 72 hours. | See also: Recent months at Arlington Reef
Date/Time
EST
Temp
°C
App
Temp
°C
Dew
Point
Rel
Hum
%
Delta-T
°C
Wind Press
QNH
hPa
Press
MSL
hPa
Rain
since 9 am
mm
Dir
 
Spd
km/h
Gust
km/h
Spd
kts
Gust
kts
28/12:00pm - - - - - NNE 7 11 4 6 1008.0 1008.0 -
28/11:30am - - - - - N 7 11 4 6 1008.1 1008.1 -
28/11:00am - - - - - NNE 7 9 4 5 1008.3 1008.3 -
28/10:30am - - - - - NNE 9 11 5 6 1008.3 1008.3 -
28/10:00am - - - - - NNE 6 9 3 5 1008.3 1008.3 -
28/09:30am - - - - - N 6 9 3 5 1008.5 1008.5 -
28/09:00am - - - - - NNE 6 9 3 5 1008.3 1008.3 -
28/08:30am - - - - - NE 4 6 2 3 1008.2 1008.2 -
28/08:00am - - - - - NE 4 7 2 4 1007.8 1007.8 -
28/07:30am - - - - - ENE 7 9 4 5 1007.1 1007.1 -
28/07:00am - - - - - N 6 7 3 4 1006.9 1006.9 -
28/06:30am - - - - - NNE 7 11 4 6 1006.8 1006.8 -
28/06:00am - - - - - NNE 6 9 3 5 1006.6 1006.6 -
28/05:30am - - - - - N 7 9 4 5 1006.2 1006.2 -
28/05:00am - - - - - N 6 9 3 5 1006.0 1006.0 -
28/04:30am - - - - - NNW 9 13 5 7 1005.9 1005.9 -
28/04:00am - - - - - N 7 9 4 5 1006.0 1006.0 -
28/03:30am - - - - - N 7 13 4 7 1006.1 1006.1 -
28/03:00am - - - - - NNW 7 9 4 5 1006.0 1006.0 -
28/02:30am - - - - - N 9 11 5 6 1006.2 1006.2 -
28/02:00am - - - - - NNW 6 9 3 5 1006.9 1006.9 -
28/01:30am - - - - - NNW 6 7 3 4 1007.3 1007.3 -
28/01:00am - - - - - NNW 7 9 4 5 1007.5 1007.5 -
28/12:30am - - - - - NNE 4 7 2 4 1007.9 1007.9 -
28/12:00am - - - - - N 7 9 4 5 1008.3 1008.3 -
 
Date/Time
EST
Temp
°C
App
Temp
°C
Dew
Point
Rel
Hum
%
Delta-T
°C
Wind Press
QNH
hPa
Press
MSL
hPa
Rain
since 9 am
mm
Dir
 
Spd
km/h
Gust
km/h
Spd
kts
Gust
kts
27/11:30pm - - - - - NNW 6 9 3 5 1008.8 1008.8 -
27/11:00pm - - - - - N 9 13 5 7 1008.4 1008.4 -
27/10:30pm - - - - - NNE 9 13 5 7 1008.5 1008.5 -
27/10:00pm - - - - - NE 9 11 5 6 1008.5 1008.5 -
27/09:30pm - - - - - NE 6 9 3 5 1008.4 1008.4 -
27/09:00pm - - - - - NE 7 11 4 6 1008.1 1008.1 -
27/08:30pm - - - - - ENE 7 11 4 6 1007.8 1007.8 -
27/08:00pm - - - - - NE 7 11 4 6 1007.3 1007.3 -
27/07:30pm - - - - - NE 9 13 5 7 1006.9 1006.9 -
27/07:00pm - - - - - NNE 11 15 6 8 1006.5 1006.5 -
27/06:30pm - - - - - NE 9 13 5 7 1006.1 1006.1 -
27/06:00pm - - - - - NE 11 15 6 8 1005.7 1005.7 -
27/05:30pm - - - - - ENE 13 17 7 9 1005.0 1005.0 -
27/05:00pm - - - - - NE 9 15 5 8 1004.8 1004.8 -
27/04:30pm - - - - - ENE 9 13 5 7 1004.9 1004.9 -
27/04:00pm - - - - - NE 9 13 5 7 1005.0 1005.0 -
27/03:30pm - - - - - NNE 9 13 5 7 1005.2 1005.2 -
27/03:00pm - - - - - NNE 7 11 4 6 1005.7 1005.7 -
27/02:30pm - - - - - NNE 6 9 3 5 1005.9 1005.9 -
27/02:00pm - - - - - CALM 0 0 0 0 1006.4 1006.4 -
27/01:30pm - - - - - CALM 0 0 0 0 1006.8 1006.8 -
27/01:00pm - - - - - CALM 0 2 0 1 1007.1 1007.1 -
27/12:30pm - - - - - CALM 0 0 0 0 1007.5 1007.5 -
27/12:00pm - - - - - W 4 6 2 3 1007.8 1007.8 -
27/11:30am - - - - - CALM 0 0 0 0 1008.1 1008.1 -
27/11:00am - - - - - CALM 0 0 0 0 1008.3 1008.3 -
27/10:30am - - - - - CALM 0 0 0 0 1008.3 1008.3 -
27/10:00am - - - - - CALM 0 0 0 0 1008.4 1008.4 -
27/09:30am - - - - - ESE 2 6 1 3 1008.3 1008.3 -
27/09:00am - - - - - SSE 4 6 2 3 1008.3 1008.3 -
27/08:30am - - - - - SE 2 6 1 3 1007.9 1007.9 -
27/08:00am - - - - - SSE 6 7 3 4 1007.5 1007.5 -
27/07:30am - - - - - SSE 4 6 2 3 1007.5 1007.5 -
27/07:00am - - - - - E 7 9 4 5 1007.3 1007.3 -
27/06:30am - - - - - E 4 6 2 3 1007.2 1007.2 -
27/06:00am - - - - - E 2 4 1 2 1006.8 1006.8 -
27/05:30am - - - - - ENE 2 6 1 3 1006.4 1006.4 -
27/05:00am - - - - - ENE 4 6 2 3 1006.2 1006.2 -
27/04:30am - - - - - CALM 0 0 0 0 1005.9 1005.9 -
27/04:00am - - - - - CALM 0 0 0 0 1006.0 1006.0 -
27/03:30am - - - - - CALM 0 0 0 0 1006.2 1006.2 -
27/03:00am - - - - - NE 4 6 2 3 1006.1 1006.1 -
27/02:30am - - - - - NNE 2 4 1 2 1006.4 1006.4 -
27/02:00am - - - - - NE 6 6 3 3 1006.8 1006.8 -
27/01:30am - - - - - ENE 6 7 3 4 1006.9 1006.9 -
27/01:00am - - - - - ESE 6 6 3 3 1007.3 1007.3 -
27/12:30am - - - - - ESE 6 7 3 4 1007.7 1007.7 -
27/12:00am - - - - - ESE 9 11 5 6 1008.0 1008.0 -
 
Date/Time
EST
Temp
°C
App
Temp
°C
Dew
Point
Rel
Hum
%
Delta-T
°C
Wind Press
QNH
hPa
Press
MSL
hPa
Rain
since 9 am
mm
Dir
 
Spd
km/h
Gust
km/h
Spd
kts
Gust
kts
26/11:30pm - - - - - ESE 7 9 4 5 1008.0 1008.0 -
26/11:00pm - - - - - ESE 9 9 5 5 1008.3 1008.3 -
26/10:30pm - - - - - SE 9 13 5 7 1008.3 1008.3 -
26/10:00pm - - - - - SE 11 15 6 8 1008.1 1008.1 -
26/09:30pm - - - - - ESE 15 17 8 9 1007.7 1007.7 -
26/09:00pm - - - - - ESE 15 19 8 10 1007.1 1007.1 -
26/08:30pm - - - - - SE 17 20 9 11 1006.8 1006.8 -
26/08:00pm - - - - - SE 15 19 8 10 1006.5 1006.5 -
26/07:30pm - - - - - ESE 19 20 10 11 1006.1 1006.1 -
26/07:00pm - - - - - SE 19 20 10 11 1005.7 1005.7 -
26/06:30pm - - - - - SE 20 24 11 13 1005.5 1005.5 -
26/06:00pm - - - - - SE 22 26 12 14 1005.4 1005.4 -
26/05:30pm - - - - - SE 22 26 12 14 1005.1 1005.1 -
26/05:00pm - - - - - SE 22 28 12 15 1005.0 1005.0 -
26/04:30pm - - - - - SSE 22 26 12 14 1004.8 1004.8 -
26/04:00pm - - - - - SE 22 26 12 14 1004.9 1004.9 -
26/03:30pm - - - - - SSE 22 26 12 14 1005.1 1005.1 -
26/03:00pm - - - - - SSE 19 22 10 12 1005.2 1005.2 -
26/02:30pm - - - - - SSE 17 20 9 11 1005.7 1005.7 -
26/02:00pm - - - - - S 15 19 8 10 1005.7 1005.7 -
26/01:30pm - - - - - S 15 19 8 10 1006.2 1006.2 -
26/01:00pm - - - - - S 13 17 7 9 1006.7 1006.7 -
26/12:30pm - - - - - S 15 17 8 9 1007.2 1007.2 -
26/12:00pm - - - - - S 15 17 8 9 1007.8 1007.8 -
26/11:30am - - - - - S 15 17 8 9 1008.2 1008.2 -
26/11:00am - - - - - SSW 15 19 8 10 1008.3 1008.3 -
26/10:30am - - - - - S 11 13 6 7 1008.6 1008.6 -
26/10:00am - - - - - S 11 15 6 8 1008.7 1008.7 -
26/09:30am - - - - - S 9 11 5 6 1008.4 1008.4 -
26/09:00am - - - - - S 9 13 5 7 1008.4 1008.4 -
26/08:30am - - - - - S 11 13 6 7 1008.5 1008.5 -
26/08:00am - - - - - SSW 15 17 8 9 1008.4 1008.4 -
26/07:30am - - - - - S 11 13 6 7 1008.2 1008.2 -
26/07:00am - - - - - S 15 19 8 10 1007.8 1007.8 -
26/06:30am - - - - - S 15 17 8 9 1007.5 1007.5 -
26/06:00am - - - - - ESE 6 9 3 5 1007.5 1007.5 -
26/05:30am - - - - - ESE 4 6 2 3 1007.4 1007.4 -
26/05:00am - - - - - E 7 9 4 5 1007.0 1007.0 -
26/04:30am - - - - - E 9 13 5 7 1007.0 1007.0 -
26/04:00am - - - - - ENE 9 13 5 7 1006.8 1006.8 -
26/03:30am - - - - - E 11 13 6 7 1006.8 1006.8 -
26/03:00am - - - - - ENE 11 13 6 7 1006.8 1006.8 -
26/02:30am - - - - - E 11 15 6 8 1006.8 1006.8 -
26/02:00am - - - - - E 9 13 5 7 1007.0 1007.0 -
26/01:30am - - - - - E 11 13 6 7 1007.0 1007.0 -
26/01:00am - - - - - E 15 17 8 9 1006.8 1006.8 -
26/12:30am - - - - - E 9 11 5 6 1007.2 1007.2 -
26/12:00am - - - - - ESE 9 13 5 7 1007.7 1007.7 -
 
Date/Time
EST
Temp
°C
App
Temp
°C
Dew
Point
Rel
Hum
%
Delta-T
°C
Wind Press
QNH
hPa
Press
MSL
hPa
Rain
since 9 am
mm
Dir
 
Spd
km/h
Gust
km/h
Spd
kts
Gust
kts
25/11:30pm - - - - - ENE 9 9 5 5 1008.0 1008.0 -
25/11:00pm - - - - - SE 6 9 3 5 1008.2 1008.2 -
25/10:30pm - - - - - SSE 9 11 5 6 1008.2 1008.2 -
25/10:00pm - - - - - SSE 7 9 4 5 1008.1 1008.1 -
25/09:30pm - - - - - SSE 9 11 5 6 1008.0 1008.0 -
25/09:00pm - - - - - SSE 11 13 6 7 1007.9 1007.9 -
25/08:30pm - - - - - S 13 17 7 9 1007.8 1007.8 -
25/08:00pm - - - - - S 17 19 9 10 1007.3 1007.3 -
25/07:30pm - - - - - S 17 20 9 11 1006.9 1006.9 -
25/07:00pm - - - - - S 17 19 9 10 1006.4 1006.4 -
25/06:30pm - - - - - SSE 19 20 10 11 1006.2 1006.2 -
25/06:00pm - - - - - SSE 17 20 9 11 1006.1 1006.1 -
25/05:30pm - - - - - S 17 19 9 10 1005.8 1005.8 -
25/05:00pm - - - - - S 11 17 6 9 1005.9 1005.9 -
25/04:30pm - - - - - SSE 9 9 5 5 1006.0 1006.0 -
25/04:00pm - - - - - NNW 4 7 2 4 1005.5 1005.5 -
25/03:30pm - - - - - NE 15 20 8 11 1005.5 1005.5 -
25/03:04pm - - - - - SSE 13 48 7 26 1005.8 1005.8 -
25/03:00pm - - - - - S 7 9 4 5 1005.9 1005.9 -
25/02:30pm - - - - - S 7 9 4 5 1006.1 1006.1 -
25/02:00pm - - - - - S 4 7 2 4 1006.7 1006.7 -
25/01:30pm - - - - - SSE 2 7 1 4 1006.9 1006.9 -
25/01:00pm - - - - - SE 4 6 2 3 1007.4 1007.4 -
25/12:30pm - - - - - S 2 4 1 2 1007.9 1007.9 -

Other Formats:

Comma delimited format used in spreadsheet applications
http://www.bom.gov.au/fwo/IDQ60801/IDQ60801.94284.axf

JavaScript Object Notation format (JSON) in row-major order
http://www.bom.gov.au/fwo/IDQ60801/IDQ60801.94284.json